sensor_id;sensor_type;location;lat;lon;timestamp;P1;durP1;ratioP1;P2;durP2;ratioP2
4462;SDS011;2244;50.200;8.220;2023-07-29T00:00:24;15.93;;;7.30;;
4462;SDS011;2244;50.200;8.220;2023-07-29T00:02:53;15.93;;;6.20;;
4462;SDS011;2244;50.200;8.220;2023-07-29T00:05:21;17.87;;;9.90;;
4462;SDS011;2244;50.200;8.220;2023-07-29T00:07:48;19.10;;;8.00;;
4462;SDS011;2244;50.200;8.220;2023-07-29T00:10:16;16.60;;;7.83;;
4462;SDS011;2244;50.200;8.220;2023-07-29T00:12:43;15.90;;;6.87;;
4462;SDS011;2244;50.200;8.220;2023-07-29T00:15:11;16.50;;;6.60;;
4462;SDS011;2244;50.200;8.220;2023-07-29T00:17:39;21.20;;;7.30;;
4462;SDS011;2244;50.200;8.220;2023-07-29T00:20:06;17.00;;;6.80;;
4462;SDS011;2244;50.200;8.220;2023-07-29T00:22:36;18.80;;;7.17;;
4462;SDS011;2244;50.200;8.220;2023-07-29T00:25:03;15.40;;;6.40;;
4462;SDS011;2244;50.200;8.220;2023-07-29T00:27:31;16.37;;;7.03;;
4462;SDS011;2244;50.200;8.220;2023-07-29T00:29:58;16.17;;;6.50;;
4462;SDS011;2244;50.200;8.220;2023-07-29T00:32:29;16.67;;;6.63;;
4462;SDS011;2244;50.200;8.220;2023-07-29T00:34:57;17.70;;;7.70;;
4462;SDS011;2244;50.200;8.220;2023-07-29T00:37:27;17.83;;;7.20;;
4462;SDS011;2244;50.200;8.220;2023-07-29T00:39:55;15.60;;;6.57;;
4462;SDS011;2244;50.200;8.220;2023-07-29T00:42:22;18.70;;;8.47;;
4462;SDS011;2244;50.200;8.220;2023-07-29T00:44:50;17.53;;;7.60;;
4462;SDS011;2244;50.200;8.220;2023-07-29T00:47:17;16.23;;;6.37;;
4462;SDS011;2244;50.200;8.220;2023-07-29T00:49:46;16.90;;;8.90;;
4462;SDS011;2244;50.200;8.220;2023-07-29T00:52:13;16.23;;;7.57;;
4462;SDS011;2244;50.200;8.220;2023-07-29T00:54:41;19.07;;;9.60;;
4462;SDS011;2244;50.200;8.220;2023-07-29T00:57:09;17.30;;;8.20;;
4462;SDS011;2244;50.200;8.220;2023-07-29T00:59:37;17.10;;;8.63;;
4462;SDS011;2244;50.200;8.220;2023-07-29T01:02:05;15.97;;;7.20;;
4462;SDS011;2244;50.200;8.220;2023-07-29T01:04:33;17.37;;;8.43;;
4462;SDS011;2244;50.200;8.220;2023-07-29T01:07:06;20.27;;;8.53;;
4462;SDS011;2244;50.200;8.220;2023-07-29T01:09:35;17.30;;;9.17;;
4462;SDS011;2244;50.200;8.220;2023-07-29T01:12:03;19.90;;;8.77;;
4462;SDS011;2244;50.200;8.220;2023-07-29T01:14:34;19.43;;;9.80;;
4462;SDS011;2244;50.200;8.220;2023-07-29T01:17:03;19.97;;;10.83;;
4462;SDS011;2244;50.200;8.220;2023-07-29T01:22:12;18.77;;;10.40;;
4462;SDS011;2244;50.200;8.220;2023-07-29T01:24:40;17.60;;;9.40;;
4462;SDS011;2244;50.200;8.220;2023-07-29T01:27:08;22.57;;;8.30;;
4462;SDS011;2244;50.200;8.220;2023-07-29T01:29:36;19.00;;;9.87;;
4462;SDS011;2244;50.200;8.220;2023-07-29T01:32:08;20.90;;;9.30;;
4462;SDS011;2244;50.200;8.220;2023-07-29T01:34:35;20.10;;;9.90;;
4462;SDS011;2244;50.200;8.220;2023-07-29T01:37:02;22.07;;;10.60;;
4462;SDS011;2244;50.200;8.220;2023-07-29T01:39:32;17.80;;;8.83;;
4462;SDS011;2244;50.200;8.220;2023-07-29T01:42:01;22.03;;;12.50;;
4462;SDS011;2244;50.200;8.220;2023-07-29T01:44:28;20.77;;;9.53;;
4462;SDS011;2244;50.200;8.220;2023-07-29T01:46:56;21.57;;;10.47;;
4462;SDS011;2244;50.200;8.220;2023-07-29T01:49:24;20.80;;;11.50;;
4462;SDS011;2244;50.200;8.220;2023-07-29T01:51:51;22.00;;;12.47;;
4462;SDS011;2244;50.200;8.220;2023-07-29T01:54:18;21.93;;;10.93;;
4462;SDS011;2244;50.200;8.220;2023-07-29T01:56:46;20.60;;;10.20;;
4462;SDS011;2244;50.200;8.220;2023-07-29T01:59:14;20.30;;;10.20;;
4462;SDS011;2244;50.200;8.220;2023-07-29T02:01:43;19.97;;;10.90;;
4462;SDS011;2244;50.200;8.220;2023-07-29T02:04:10;23.50;;;11.80;;
4462;SDS011;2244;50.200;8.220;2023-07-29T02:06:38;21.13;;;11.20;;
4462;SDS011;2244;50.200;8.220;2023-07-29T02:09:05;22.63;;;12.90;;
4462;SDS011;2244;50.200;8.220;2023-07-29T02:11:33;23.27;;;12.70;;
4462;SDS011;2244;50.200;8.220;2023-07-29T02:14:00;20.40;;;11.10;;
4462;SDS011;2244;50.200;8.220;2023-07-29T02:16:28;20.50;;;11.40;;
4462;SDS011;2244;50.200;8.220;2023-07-29T02:18:55;25.70;;;12.30;;
4462;SDS011;2244;50.200;8.220;2023-07-29T02:21:23;21.20;;;11.23;;
4462;SDS011;2244;50.200;8.220;2023-07-29T02:23:50;24.00;;;13.23;;
4462;SDS011;2244;50.200;8.220;2023-07-29T02:26:18;22.90;;;13.00;;
4462;SDS011;2244;50.200;8.220;2023-07-29T02:28:46;22.00;;;11.90;;
4462;SDS011;2244;50.200;8.220;2023-07-29T02:31:22;23.47;;;12.10;;
4462;SDS011;2244;50.200;8.220;2023-07-29T02:33:51;22.40;;;13.10;;
4462;SDS011;2244;50.200;8.220;2023-07-29T02:36:19;23.90;;;14.37;;
4462;SDS011;2244;50.200;8.220;2023-07-29T02:38:46;22.40;;;12.47;;
4462;SDS011;2244;50.200;8.220;2023-07-29T02:41:14;23.63;;;13.13;;
4462;SDS011;2244;50.200;8.220;2023-07-29T02:43:43;24.63;;;12.00;;
4462;SDS011;2244;50.200;8.220;2023-07-29T02:46:10;23.20;;;11.00;;
4462;SDS011;2244;50.200;8.220;2023-07-29T02:48:38;22.70;;;11.37;;
4462;SDS011;2244;50.200;8.220;2023-07-29T02:51:05;23.30;;;11.33;;
4462;SDS011;2244;50.200;8.220;2023-07-29T02:53:33;23.30;;;11.67;;
4462;SDS011;2244;50.200;8.220;2023-07-29T02:56:02;20.60;;;11.07;;
4462;SDS011;2244;50.200;8.220;2023-07-29T02:58:30;20.83;;;10.60;;
4462;SDS011;2244;50.200;8.220;2023-07-29T03:01:01;20.70;;;10.13;;
4462;SDS011;2244;50.200;8.220;2023-07-29T03:03:29;19.80;;;10.30;;
4462;SDS011;2244;50.200;8.220;2023-07-29T03:06:04;22.10;;;10.13;;
4462;SDS011;2244;50.200;8.220;2023-07-29T03:08:31;19.60;;;8.10;;
4462;SDS011;2244;50.200;8.220;2023-07-29T03:11:04;19.67;;;9.67;;
4462;SDS011;2244;50.200;8.220;2023-07-29T03:13:28;20.97;;;8.67;;
4462;SDS011;2244;50.200;8.220;2023-07-29T03:16:04;25.30;;;10.70;;
4462;SDS011;2244;50.200;8.220;2023-07-29T03:18:24;19.87;;;10.47;;
4462;SDS011;2244;50.200;8.220;2023-07-29T03:20:52;20.17;;;9.47;;
4462;SDS011;2244;50.200;8.220;2023-07-29T03:23:21;19.27;;;9.60;;
4462;SDS011;2244;50.200;8.220;2023-07-29T03:25:49;19.53;;;7.93;;
4462;SDS011;2244;50.200;8.220;2023-07-29T03:28:18;18.10;;;7.20;;
4462;SDS011;2244;50.200;8.220;2023-07-29T03:30:45;20.73;;;8.63;;
4462;SDS011;2244;50.200;8.220;2023-07-29T03:33:13;18.30;;;8.70;;
4462;SDS011;2244;50.200;8.220;2023-07-29T03:35:41;17.77;;;7.30;;
4462;SDS011;2244;50.200;8.220;2023-07-29T03:38:10;18.70;;;7.30;;
4462;SDS011;2244;50.200;8.220;2023-07-29T03:40:38;19.03;;;7.13;;
4462;SDS011;2244;50.200;8.220;2023-07-29T03:43:06;19.60;;;7.93;;
4462;SDS011;2244;50.200;8.220;2023-07-29T03:45:34;18.80;;;8.27;;
4462;SDS011;2244;50.200;8.220;2023-07-29T03:48:02;22.83;;;8.30;;
4462;SDS011;2244;50.200;8.220;2023-07-29T03:50:29;17.90;;;7.73;;
4462;SDS011;2244;50.200;8.220;2023-07-29T03:52:57;17.90;;;7.97;;
4462;SDS011;2244;50.200;8.220;2023-07-29T03:55:24;19.47;;;8.17;;
4462;SDS011;2244;50.200;8.220;2023-07-29T03:57:52;19.23;;;7.30;;
4462;SDS011;2244;50.200;8.220;2023-07-29T04:00:19;19.43;;;7.90;;
4462;SDS011;2244;50.200;8.220;2023-07-29T04:02:46;17.53;;;7.67;;
4462;SDS011;2244;50.200;8.220;2023-07-29T04:05:14;17.70;;;8.43;;
4462;SDS011;2244;50.200;8.220;2023-07-29T04:07:42;18.23;;;8.40;;
4462;SDS011;2244;50.200;8.220;2023-07-29T04:10:09;17.80;;;8.73;;
4462;SDS011;2244;50.200;8.220;2023-07-29T04:12:37;19.60;;;8.53;;
4462;SDS011;2244;50.200;8.220;2023-07-29T04:15:05;18.03;;;9.70;;
4462;SDS011;2244;50.200;8.220;2023-07-29T04:17:32;17.90;;;8.40;;
4462;SDS011;2244;50.200;8.220;2023-07-29T04:20:00;18.37;;;8.10;;
4462;SDS011;2244;50.200;8.220;2023-07-29T04:22:27;19.30;;;9.20;;
4462;SDS011;2244;50.200;8.220;2023-07-29T04:24:55;17.47;;;8.10;;
4462;SDS011;2244;50.200;8.220;2023-07-29T04:27:22;17.60;;;7.80;;
4462;SDS011;2244;50.200;8.220;2023-07-29T04:29:50;19.60;;;8.67;;
4462;SDS011;2244;50.200;8.220;2023-07-29T04:32:17;17.10;;;7.20;;
4462;SDS011;2244;50.200;8.220;2023-07-29T04:34:45;17.90;;;7.63;;
4462;SDS011;2244;50.200;8.220;2023-07-29T04:37:12;17.00;;;7.83;;
4462;SDS011;2244;50.200;8.220;2023-07-29T04:39:40;22.97;;;7.93;;
4462;SDS011;2244;50.200;8.220;2023-07-29T04:42:07;18.37;;;7.40;;
4462;SDS011;2244;50.200;8.220;2023-07-29T04:44:35;16.70;;;7.37;;
4462;SDS011;2244;50.200;8.220;2023-07-29T04:47:03;19.00;;;7.23;;
4462;SDS011;2244;50.200;8.220;2023-07-29T04:49:31;16.30;;;8.67;;
4462;SDS011;2244;50.200;8.220;2023-07-29T04:51:58;17.47;;;6.10;;
4462;SDS011;2244;50.200;8.220;2023-07-29T04:54:26;15.73;;;5.90;;
4462;SDS011;2244;50.200;8.220;2023-07-29T04:56:53;15.67;;;5.70;;
4462;SDS011;2244;50.200;8.220;2023-07-29T04:59:21;16.53;;;8.37;;
4462;SDS011;2244;50.200;8.220;2023-07-29T05:01:48;16.87;;;9.00;;
4462;SDS011;2244;50.200;8.220;2023-07-29T05:04:17;16.80;;;6.40;;
4462;SDS011;2244;50.200;8.220;2023-07-29T05:06:45;17.10;;;6.80;;
4462;SDS011;2244;50.200;8.220;2023-07-29T05:09:13;16.40;;;8.83;;
4462;SDS011;2244;50.200;8.220;2023-07-29T05:11:40;19.73;;;6.67;;
4462;SDS011;2244;50.200;8.220;2023-07-29T05:14:08;16.20;;;6.60;;
4462;SDS011;2244;50.200;8.220;2023-07-29T05:16:36;16.00;;;8.37;;
4462;SDS011;2244;50.200;8.220;2023-07-29T05:19:04;17.67;;;6.43;;
4462;SDS011;2244;50.200;8.220;2023-07-29T05:21:31;16.43;;;6.90;;
4462;SDS011;2244;50.200;8.220;2023-07-29T05:23:59;16.73;;;6.57;;
4462;SDS011;2244;50.200;8.220;2023-07-29T05:26:26;17.73;;;8.47;;
4462;SDS011;2244;50.200;8.220;2023-07-29T05:28:54;17.10;;;7.50;;
4462;SDS011;2244;50.200;8.220;2023-07-29T05:31:21;16.07;;;5.93;;
4462;SDS011;2244;50.200;8.220;2023-07-29T05:33:49;16.27;;;7.70;;
4462;SDS011;2244;50.200;8.220;2023-07-29T05:36:17;16.90;;;5.73;;
4462;SDS011;2244;50.200;8.220;2023-07-29T05:38:44;16.93;;;6.60;;
4462;SDS011;2244;50.200;8.220;2023-07-29T05:41:11;16.97;;;5.40;;
4462;SDS011;2244;50.200;8.220;2023-07-29T05:43:39;15.40;;;6.00;;
4462;SDS011;2244;50.200;8.220;2023-07-29T05:46:06;17.87;;;7.30;;
4462;SDS011;2244;50.200;8.220;2023-07-29T05:48:34;16.60;;;6.67;;
4462;SDS011;2244;50.200;8.220;2023-07-29T05:51:02;16.40;;;6.50;;
4462;SDS011;2244;50.200;8.220;2023-07-29T05:53:29;15.90;;;6.30;;
4462;SDS011;2244;50.200;8.220;2023-07-29T05:55:57;17.27;;;5.60;;
4462;SDS011;2244;50.200;8.220;2023-07-29T05:58:24;17.17;;;6.67;;
4462;SDS011;2244;50.200;8.220;2023-07-29T06:00:52;14.50;;;5.50;;
4462;SDS011;2244;50.200;8.220;2023-07-29T06:03:19;19.63;;;5.53;;
4462;SDS011;2244;50.200;8.220;2023-07-29T06:05:48;15.10;;;5.50;;
4462;SDS011;2244;50.200;8.220;2023-07-29T06:08:17;16.40;;;8.80;;
4462;SDS011;2244;50.200;8.220;2023-07-29T06:10:44;17.90;;;7.40;;
4462;SDS011;2244;50.200;8.220;2023-07-29T06:13:12;19.20;;;6.77;;
4462;SDS011;2244;50.200;8.220;2023-07-29T06:15:39;17.07;;;7.73;;
4462;SDS011;2244;50.200;8.220;2023-07-29T06:18:07;20.93;;;5.93;;
4462;SDS011;2244;50.200;8.220;2023-07-29T06:20:34;19.73;;;5.27;;
4462;SDS011;2244;50.200;8.220;2023-07-29T06:23:03;20.07;;;5.70;;
4462;SDS011;2244;50.200;8.220;2023-07-29T06:25:30;20.20;;;5.30;;
4462;SDS011;2244;50.200;8.220;2023-07-29T06:27:57;19.33;;;6.43;;
4462;SDS011;2244;50.200;8.220;2023-07-29T06:30:25;19.63;;;6.90;;
4462;SDS011;2244;50.200;8.220;2023-07-29T06:32:53;18.90;;;6.43;;
4462;SDS011;2244;50.200;8.220;2023-07-29T06:35:22;20.90;;;7.60;;
4462;SDS011;2244;50.200;8.220;2023-07-29T06:37:50;16.80;;;7.60;;
4462;SDS011;2244;50.200;8.220;2023-07-29T06:40:17;23.73;;;7.20;;
4462;SDS011;2244;50.200;8.220;2023-07-29T06:42:44;19.20;;;8.23;;
4462;SDS011;2244;50.200;8.220;2023-07-29T06:45:12;19.63;;;6.90;;
4462;SDS011;2244;50.200;8.220;2023-07-29T06:47:39;18.53;;;7.50;;
4462;SDS011;2244;50.200;8.220;2023-07-29T06:50:07;16.20;;;6.90;;
4462;SDS011;2244;50.200;8.220;2023-07-29T06:52:34;19.83;;;7.23;;
4462;SDS011;2244;50.200;8.220;2023-07-29T06:55:03;17.60;;;7.93;;
4462;SDS011;2244;50.200;8.220;2023-07-29T06:57:31;18.63;;;6.87;;
4462;SDS011;2244;50.200;8.220;2023-07-29T06:59:58;19.07;;;7.93;;
4462;SDS011;2244;50.200;8.220;2023-07-29T07:02:26;16.90;;;6.80;;
4462;SDS011;2244;50.200;8.220;2023-07-29T07:04:54;16.10;;;5.90;;
4462;SDS011;2244;50.200;8.220;2023-07-29T07:07:21;18.17;;;7.97;;
4462;SDS011;2244;50.200;8.220;2023-07-29T07:09:48;15.57;;;6.30;;
4462;SDS011;2244;50.200;8.220;2023-07-29T07:12:16;16.67;;;7.60;;
4462;SDS011;2244;50.200;8.220;2023-07-29T07:14:43;16.37;;;7.03;;
4462;SDS011;2244;50.200;8.220;2023-07-29T07:17:11;17.83;;;4.90;;
4462;SDS011;2244;50.200;8.220;2023-07-29T07:19:39;15.60;;;5.33;;
4462;SDS011;2244;50.200;8.220;2023-07-29T07:22:07;16.23;;;5.50;;
4462;SDS011;2244;50.200;8.220;2023-07-29T07:24:34;15.10;;;6.23;;
4462;SDS011;2244;50.200;8.220;2023-07-29T07:27:02;15.23;;;5.73;;
4462;SDS011;2244;50.200;8.220;2023-07-29T07:29:29;16.33;;;5.83;;
4462;SDS011;2244;50.200;8.220;2023-07-29T07:31:57;17.53;;;6.30;;
4462;SDS011;2244;50.200;8.220;2023-07-29T07:34:24;15.30;;;5.77;;
4462;SDS011;2244;50.200;8.220;2023-07-29T07:36:52;14.90;;;5.40;;
4462;SDS011;2244;50.200;8.220;2023-07-29T07:39:20;14.73;;;6.60;;
4462;SDS011;2244;50.200;8.220;2023-07-29T07:41:47;15.40;;;5.67;;
4462;SDS011;2244;50.200;8.220;2023-07-29T07:44:15;23.07;;;8.13;;
4462;SDS011;2244;50.200;8.220;2023-07-29T07:46:44;14.43;;;5.40;;
4462;SDS011;2244;50.200;8.220;2023-07-29T07:49:11;20.37;;;10.00;;
4462;SDS011;2244;50.200;8.220;2023-07-29T07:51:39;14.40;;;4.80;;
4462;SDS011;2244;50.200;8.220;2023-07-29T07:54:07;18.23;;;6.50;;
4462;SDS011;2244;50.200;8.220;2023-07-29T07:56:34;14.00;;;6.13;;
4462;SDS011;2244;50.200;8.220;2023-07-29T07:59:02;15.43;;;3.80;;
4462;SDS011;2244;50.200;8.220;2023-07-29T08:01:36;13.87;;;6.23;;
4462;SDS011;2244;50.200;8.220;2023-07-29T08:04:04;14.40;;;6.10;;
4462;SDS011;2244;50.200;8.220;2023-07-29T08:06:31;14.80;;;5.27;;
4462;SDS011;2244;50.200;8.220;2023-07-29T08:08:59;13.40;;;4.30;;
4462;SDS011;2244;50.200;8.220;2023-07-29T08:11:27;13.60;;;5.13;;
4462;SDS011;2244;50.200;8.220;2023-07-29T08:13:54;13.00;;;5.07;;
4462;SDS011;2244;50.200;8.220;2023-07-29T08:16:23;18.17;;;4.23;;
4462;SDS011;2244;50.200;8.220;2023-07-29T08:18:50;12.80;;;3.50;;
4462;SDS011;2244;50.200;8.220;2023-07-29T08:21:18;13.53;;;4.30;;
4462;SDS011;2244;50.200;8.220;2023-07-29T08:23:45;13.03;;;2.97;;
4462;SDS011;2244;50.200;8.220;2023-07-29T08:26:13;13.90;;;3.50;;
4462;SDS011;2244;50.200;8.220;2023-07-29T08:28:40;12.53;;;3.67;;
4462;SDS011;2244;50.200;8.220;2023-07-29T08:31:08;13.50;;;3.70;;
4462;SDS011;2244;50.200;8.220;2023-07-29T08:33:35;11.60;;;1.93;;
4462;SDS011;2244;50.200;8.220;2023-07-29T08:36:03;12.63;;;2.50;;
4462;SDS011;2244;50.200;8.220;2023-07-29T08:38:31;11.90;;;2.83;;
4462;SDS011;2244;50.200;8.220;2023-07-29T08:41:00;13.50;;;2.40;;
4462;SDS011;2244;50.200;8.220;2023-07-29T08:43:31;13.03;;;2.50;;
4462;SDS011;2244;50.200;8.220;2023-07-29T08:45:59;13.07;;;1.90;;
4462;SDS011;2244;50.200;8.220;2023-07-29T08:48:39;11.30;;;2.00;;
4462;SDS011;2244;50.200;8.220;2023-07-29T08:51:02;12.40;;;2.13;;
4462;SDS011;2244;50.200;8.220;2023-07-29T08:53:31;11.40;;;2.23;;
4462;SDS011;2244;50.200;8.220;2023-07-29T08:55:58;11.20;;;2.00;;
4462;SDS011;2244;50.200;8.220;2023-07-29T08:58:26;12.80;;;2.80;;
4462;SDS011;2244;50.200;8.220;2023-07-29T09:00:53;13.97;;;3.63;;
4462;SDS011;2244;50.200;8.220;2023-07-29T09:03:21;11.77;;;2.43;;
4462;SDS011;2244;50.200;8.220;2023-07-29T09:05:48;12.27;;;2.90;;
4462;SDS011;2244;50.200;8.220;2023-07-29T09:08:17;13.13;;;3.00;;
4462;SDS011;2244;50.200;8.220;2023-07-29T09:10:45;13.90;;;2.60;;
4462;SDS011;2244;50.200;8.220;2023-07-29T09:13:13;12.50;;;3.43;;
4462;SDS011;2244;50.200;8.220;2023-07-29T09:15:40;12.67;;;2.27;;
4462;SDS011;2244;50.200;8.220;2023-07-29T09:18:09;12.37;;;3.20;;
4462;SDS011;2244;50.200;8.220;2023-07-29T09:20:37;11.40;;;2.20;;
4462;SDS011;2244;50.200;8.220;2023-07-29T09:23:07;12.77;;;2.20;;
4462;SDS011;2244;50.200;8.220;2023-07-29T09:25:34;12.33;;;2.63;;
4462;SDS011;2244;50.200;8.220;2023-07-29T09:28:02;11.67;;;2.00;;
4462;SDS011;2244;50.200;8.220;2023-07-29T09:30:30;11.57;;;2.10;;
4462;SDS011;2244;50.200;8.220;2023-07-29T09:32:58;10.97;;;1.70;;
4462;SDS011;2244;50.200;8.220;2023-07-29T09:35:27;14.63;;;2.87;;
4462;SDS011;2244;50.200;8.220;2023-07-29T09:37:55;14.10;;;2.10;;
4462;SDS011;2244;50.200;8.220;2023-07-29T09:40:22;11.60;;;2.20;;
4462;SDS011;2244;50.200;8.220;2023-07-29T09:42:50;11.00;;;1.80;;
4462;SDS011;2244;50.200;8.220;2023-07-29T09:45:25;15.13;;;2.03;;
4462;SDS011;2244;50.200;8.220;2023-07-29T09:47:52;11.80;;;2.17;;
4462;SDS011;2244;50.200;8.220;2023-07-29T09:50:23;12.97;;;2.30;;
4462;SDS011;2244;50.200;8.220;2023-07-29T09:52:51;12.43;;;1.87;;
4462;SDS011;2244;50.200;8.220;2023-07-29T09:55:20;10.93;;;1.57;;
4462;SDS011;2244;50.200;8.220;2023-07-29T09:57:48;12.63;;;1.83;;
4462;SDS011;2244;50.200;8.220;2023-07-29T10:00:17;10.90;;;1.50;;
4462;SDS011;2244;50.200;8.220;2023-07-29T10:02:45;12.60;;;2.10;;
4462;SDS011;2244;50.200;8.220;2023-07-29T10:05:13;11.50;;;1.70;;
4462;SDS011;2244;50.200;8.220;2023-07-29T10:07:41;12.27;;;2.47;;
4462;SDS011;2244;50.200;8.220;2023-07-29T10:10:08;12.10;;;2.40;;
4462;SDS011;2244;50.200;8.220;2023-07-29T10:12:36;14.37;;;3.37;;
4462;SDS011;2244;50.200;8.220;2023-07-29T10:15:04;11.70;;;2.27;;
4462;SDS011;2244;50.200;8.220;2023-07-29T10:17:33;11.20;;;1.73;;
4462;SDS011;2244;50.200;8.220;2023-07-29T10:20:01;12.27;;;2.00;;
4462;SDS011;2244;50.200;8.220;2023-07-29T10:22:29;12.80;;;1.90;;
4462;SDS011;2244;50.200;8.220;2023-07-29T10:24:59;12.17;;;2.40;;
4462;SDS011;2244;50.200;8.220;2023-07-29T10:27:26;11.60;;;1.93;;
4462;SDS011;2244;50.200;8.220;2023-07-29T10:29:55;11.33;;;2.03;;
4462;SDS011;2244;50.200;8.220;2023-07-29T10:32:25;11.90;;;2.70;;
4462;SDS011;2244;50.200;8.220;2023-07-29T10:34:53;13.10;;;2.13;;
4462;SDS011;2244;50.200;8.220;2023-07-29T10:37:21;15.30;;;2.23;;
4462;SDS011;2244;50.200;8.220;2023-07-29T10:39:55;14.40;;;2.20;;
4462;SDS011;2244;50.200;8.220;2023-07-29T10:42:23;14.00;;;2.73;;
4462;SDS011;2244;50.200;8.220;2023-07-29T10:44:51;11.33;;;1.73;;
4462;SDS011;2244;50.200;8.220;2023-07-29T10:47:27;13.80;;;2.33;;
4462;SDS011;2244;50.200;8.220;2023-07-29T10:49:56;12.43;;;2.27;;
4462;SDS011;2244;50.200;8.220;2023-07-29T10:52:28;13.43;;;2.30;;
4462;SDS011;2244;50.200;8.220;2023-07-29T10:54:56;14.10;;;1.90;;
4462;SDS011;2244;50.200;8.220;2023-07-29T10:57:32;12.40;;;1.80;;
4462;SDS011;2244;50.200;8.220;2023-07-29T11:00:00;11.10;;;1.90;;
4462;SDS011;2244;50.200;8.220;2023-07-29T11:02:29;11.77;;;1.90;;
4462;SDS011;2244;50.200;8.220;2023-07-29T11:04:57;11.57;;;2.20;;
4462;SDS011;2244;50.200;8.220;2023-07-29T11:07:25;13.20;;;2.00;;
4462;SDS011;2244;50.200;8.220;2023-07-29T11:09:57;13.57;;;2.10;;
4462;SDS011;2244;50.200;8.220;2023-07-29T11:17:53;12.27;;;2.37;;
4462;SDS011;2244;50.200;8.220;2023-07-29T11:20:22;15.10;;;2.50;;
4462;SDS011;2244;50.200;8.220;2023-07-29T11:22:50;15.60;;;2.30;;
4462;SDS011;2244;50.200;8.220;2023-07-29T11:25:17;11.87;;;2.10;;
4462;SDS011;2244;50.200;8.220;2023-07-29T11:27:45;13.97;;;2.10;;
4462;SDS011;2244;50.200;8.220;2023-07-29T11:30:13;23.93;;;2.17;;
4462;SDS011;2244;50.200;8.220;2023-07-29T11:32:42;12.03;;;2.23;;
4462;SDS011;2244;50.200;8.220;2023-07-29T11:35:11;15.20;;;2.40;;
4462;SDS011;2244;50.200;8.220;2023-07-29T11:37:41;16.50;;;3.33;;
4462;SDS011;2244;50.200;8.220;2023-07-29T11:40:09;11.17;;;1.57;;
4462;SDS011;2244;50.200;8.220;2023-07-29T11:42:39;11.67;;;1.93;;
4462;SDS011;2244;50.200;8.220;2023-07-29T11:45:07;11.80;;;1.70;;
4462;SDS011;2244;50.200;8.220;2023-07-29T11:47:36;11.60;;;2.10;;
4462;SDS011;2244;50.200;8.220;2023-07-29T11:50:04;11.73;;;2.00;;
4462;SDS011;2244;50.200;8.220;2023-07-29T11:52:32;20.73;;;17.07;;
4462;SDS011;2244;50.200;8.220;2023-07-29T11:55:01;12.00;;;2.70;;
4462;SDS011;2244;50.200;8.220;2023-07-29T11:57:29;13.50;;;1.60;;
4462;SDS011;2244;50.200;8.220;2023-07-29T11:59:57;12.53;;;1.83;;
4462;SDS011;2244;50.200;8.220;2023-07-29T12:02:25;11.90;;;2.10;;
4462;SDS011;2244;50.200;8.220;2023-07-29T12:04:52;12.30;;;2.00;;
4462;SDS011;2244;50.200;8.220;2023-07-29T12:07:20;14.80;;;1.90;;
4462;SDS011;2244;50.200;8.220;2023-07-29T12:09:48;11.90;;;2.50;;
4462;SDS011;2244;50.200;8.220;2023-07-29T12:12:16;14.27;;;2.63;;
4462;SDS011;2244;50.200;8.220;2023-07-29T12:14:49;11.90;;;2.50;;
4462;SDS011;2244;50.200;8.220;2023-07-29T12:17:13;12.60;;;2.10;;
4462;SDS011;2244;50.200;8.220;2023-07-29T12:19:41;13.17;;;3.40;;
4462;SDS011;2244;50.200;8.220;2023-07-29T12:22:09;13.40;;;3.80;;
4462;SDS011;2244;50.200;8.220;2023-07-29T12:24:38;12.67;;;3.20;;
4462;SDS011;2244;50.200;8.220;2023-07-29T12:27:09;11.63;;;2.00;;
4462;SDS011;2244;50.200;8.220;2023-07-29T12:29:39;11.33;;;1.70;;
4462;SDS011;2244;50.200;8.220;2023-07-29T12:32:04;12.13;;;2.27;;
4462;SDS011;2244;50.200;8.220;2023-07-29T12:34:32;12.87;;;2.10;;
4462;SDS011;2244;50.200;8.220;2023-07-29T12:36:59;12.60;;;2.90;;
4462;SDS011;2244;50.200;8.220;2023-07-29T12:39:29;12.87;;;2.00;;
4462;SDS011;2244;50.200;8.220;2023-07-29T12:41:57;12.07;;;2.30;;
4462;SDS011;2244;50.200;8.220;2023-07-29T12:44:27;12.90;;;4.50;;
4462;SDS011;2244;50.200;8.220;2023-07-29T12:46:54;12.97;;;2.50;;
4462;SDS011;2244;50.200;8.220;2023-07-29T12:49:21;11.77;;;2.00;;
4462;SDS011;2244;50.200;8.220;2023-07-29T12:51:49;12.33;;;2.70;;
4462;SDS011;2244;50.200;8.220;2023-07-29T12:54:16;12.47;;;3.07;;
4462;SDS011;2244;50.200;8.220;2023-07-29T12:56:44;14.90;;;3.10;;
4462;SDS011;2244;50.200;8.220;2023-07-29T12:59:11;13.17;;;2.83;;
4462;SDS011;2244;50.200;8.220;2023-07-29T13:01:39;13.10;;;2.93;;
4462;SDS011;2244;50.200;8.220;2023-07-29T13:04:06;12.73;;;3.83;;
4462;SDS011;2244;50.200;8.220;2023-07-29T13:06:33;15.30;;;3.50;;
4462;SDS011;2244;50.200;8.220;2023-07-29T13:09:02;12.50;;;3.17;;
4462;SDS011;2244;50.200;8.220;2023-07-29T13:11:30;12.30;;;2.80;;
4462;SDS011;2244;50.200;8.220;2023-07-29T13:13:59;12.40;;;2.67;;
4462;SDS011;2244;50.200;8.220;2023-07-29T13:16:27;11.90;;;2.50;;
4462;SDS011;2244;50.200;8.220;2023-07-29T13:18:55;12.10;;;2.43;;
4462;SDS011;2244;50.200;8.220;2023-07-29T13:21:23;12.37;;;3.47;;
4462;SDS011;2244;50.200;8.220;2023-07-29T13:23:51;14.73;;;4.60;;
4462;SDS011;2244;50.200;8.220;2023-07-29T13:26:19;12.00;;;2.30;;
4462;SDS011;2244;50.200;8.220;2023-07-29T13:28:46;14.13;;;3.40;;
4462;SDS011;2244;50.200;8.220;2023-07-29T13:31:14;11.90;;;2.80;;
4462;SDS011;2244;50.200;8.220;2023-07-29T13:33:41;12.07;;;2.73;;
4462;SDS011;2244;50.200;8.220;2023-07-29T13:36:09;12.20;;;3.40;;
4462;SDS011;2244;50.200;8.220;2023-07-29T13:38:36;13.43;;;5.10;;
4462;SDS011;2244;50.200;8.220;2023-07-29T13:41:04;13.30;;;1.93;;
4462;SDS011;2244;50.200;8.220;2023-07-29T13:43:32;12.87;;;2.60;;
4462;SDS011;2244;50.200;8.220;2023-07-29T13:45:59;12.00;;;2.87;;
4462;SDS011;2244;50.200;8.220;2023-07-29T13:48:27;11.87;;;2.70;;
4462;SDS011;2244;50.200;8.220;2023-07-29T13:50:54;15.13;;;7.40;;
4462;SDS011;2244;50.200;8.220;2023-07-29T13:53:22;12.30;;;2.20;;
4462;SDS011;2244;50.200;8.220;2023-07-29T13:55:49;22.00;;;15.57;;
4462;SDS011;2244;50.200;8.220;2023-07-29T13:58:17;16.67;;;5.57;;
4462;SDS011;2244;50.200;8.220;2023-07-29T14:00:44;20.70;;;13.10;;
4462;SDS011;2244;50.200;8.220;2023-07-29T14:03:11;15.60;;;2.30;;
4462;SDS011;2244;50.200;8.220;2023-07-29T14:05:39;13.03;;;2.40;;
4462;SDS011;2244;50.200;8.220;2023-07-29T14:08:06;11.60;;;2.30;;
4462;SDS011;2244;50.200;8.220;2023-07-29T14:10:34;15.67;;;2.23;;
4462;SDS011;2244;50.200;8.220;2023-07-29T14:13:01;11.63;;;2.40;;
4462;SDS011;2244;50.200;8.220;2023-07-29T14:15:29;15.13;;;2.23;;
4462;SDS011;2244;50.200;8.220;2023-07-29T14:17:58;11.57;;;2.00;;
4462;SDS011;2244;50.200;8.220;2023-07-29T14:20:26;13.63;;;3.23;;
4462;SDS011;2244;50.200;8.220;2023-07-29T14:22:53;11.40;;;2.13;;
4462;SDS011;2244;50.200;8.220;2023-07-29T14:25:20;12.20;;;2.33;;
4462;SDS011;2244;50.200;8.220;2023-07-29T14:27:48;11.40;;;1.90;;
4462;SDS011;2244;50.200;8.220;2023-07-29T14:30:15;12.27;;;2.10;;
4462;SDS011;2244;50.200;8.220;2023-07-29T14:32:43;14.63;;;2.40;;
4462;SDS011;2244;50.200;8.220;2023-07-29T14:35:10;12.90;;;1.83;;
4462;SDS011;2244;50.200;8.220;2023-07-29T14:37:38;11.60;;;2.13;;
4462;SDS011;2244;50.200;8.220;2023-07-29T14:40:06;11.50;;;2.20;;
4462;SDS011;2244;50.200;8.220;2023-07-29T14:42:34;11.80;;;2.40;;
4462;SDS011;2244;50.200;8.220;2023-07-29T14:45:02;12.93;;;2.37;;
4462;SDS011;2244;50.200;8.220;2023-07-29T14:47:29;12.10;;;2.53;;
4462;SDS011;2244;50.200;8.220;2023-07-29T14:49:58;12.47;;;2.17;;
4462;SDS011;2244;50.200;8.220;2023-07-29T14:52:26;13.23;;;4.03;;
4462;SDS011;2244;50.200;8.220;2023-07-29T14:54:55;11.33;;;1.83;;
4462;SDS011;2244;50.200;8.220;2023-07-29T14:57:22;14.00;;;3.80;;
4462;SDS011;2244;50.200;8.220;2023-07-29T14:59:50;12.73;;;2.77;;
4462;SDS011;2244;50.200;8.220;2023-07-29T15:02:17;11.90;;;1.60;;
4462;SDS011;2244;50.200;8.220;2023-07-29T15:04:45;14.90;;;5.43;;
4462;SDS011;2244;50.200;8.220;2023-07-29T15:07:12;14.10;;;2.67;;
4462;SDS011;2244;50.200;8.220;2023-07-29T15:09:40;12.37;;;3.53;;
4462;SDS011;2244;50.200;8.220;2023-07-29T15:12:07;13.83;;;2.10;;